Flight Track Log - Related Links

Times and Time Zones

All times are in EDT time to prevent confusion due to time zone crossing. See the SWA1969 flight status page for this flight to view local times or setup timezone preferences in your user account.

Time Position Orientation Groundspeed Altitude Reporting Facility
EDT Latitude Longitude Course Direction KTS MPH feet Rate Location/Type
Wed 08:57:50 AM 35.3936 -97.5919 37° Northeast 144 166 2,200  Level Fort Center
Wed 08:59:33 AM 35.4644 -97.5256 37° Northeast 248 285 6,600 2,890 Climbing Kansas Center
Wed 09:00:34 AM 35.5033 -97.4356 62° Northeast 277 319 10,100 3,443 Climbing Kansas Center
Wed 09:01:35 AM 35.5414 -97.3272 67° East 329 379 13,600 2,976 Climbing Kansas Center
Wed 09:02:37 AM 35.5883 -97.2172 62° Northeast 351 404 16,200 2,732 Climbing Kansas Center
Wed 09:03:38 AM 35.6433 -97.0914 62° Northeast 408 470 19,200 2,826 Climbing Kansas Center
Wed 09:04:38 AM 35.6989 -96.9625 62° Northeast 421 484 21,900 2,656 Climbing Kansas Center
Wed 09:05:40 AM 35.7567 -96.8281 62° Northeast 438 504 24,600 2,780 Climbing Kansas Center
Wed 09:06:41 AM 35.8275 -96.6617 62° Northeast 454 522 27,600 2,607 Climbing Kansas Center
Wed 09:07:42 AM 35.8872 -96.5222 62° Northeast 459 528 29,900 2,016 Climbing Kansas Center
Wed 09:08:46 AM 35.9431 -96.3919 62° Northeast 459 528 31,800 1,645 Climbing Kansas Center
Wed 09:09:46 AM 36.0031 -96.2489 63° Northeast 467 537 33,300 1,884 Climbing Kansas Center
Wed 09:10:47 AM 36.0642 -96.1042 62° Northeast 472 543 35,600 2,115 Climbing Kansas Center
Wed 09:11:48 AM 36.1231 -95.9642 62° Northeast 464 534 37,600 1,561 Climbing Kansas Center
Wed 09:12:50 AM 36.1803 -95.8261 63° Northeast 455 524 38,800 976 Climbing Kansas Center
Wed 09:13:51 AM 36.2483 -95.6803 60° Northeast 460 529 39,600 836 Climbing Kansas Center
Wed 09:14:52 AM 36.3164 -95.5406 59° Northeast 471 542 40,500 689 Climbing Kansas Center
Wed 09:15:53 AM 36.3844 -95.3975 59° Northeast 477 549 41,000 246 Climbing Kansas Center
Wed 09:16:54 AM 36.4669 -95.2281 59° Northeast 479 551 41,000  Level Kansas Center
Wed 09:17:55 AM 36.5219 -95.1136 59° Northeast 481 554 41,000  Level Kansas Center
Wed 09:18:57 AM 36.6064 -94.9342 60° Northeast 478 550 41,000  Level Kansas Center
Wed 09:19:58 AM 36.6731 -94.7939 59° Northeast 474 545 41,000  Level Kansas Center
Wed 09:20:59 AM 36.7394 -94.6531 60° Northeast 472 543 41,000  Level Kansas Center
Wed 09:22:00 AM 36.8053 -94.5128 60° Northeast 469 540 41,000  Level Kansas Center
Wed 09:23:01 AM 36.8908 -94.3892 49° Northeast 476 548 41,000  Level Kansas Center
Wed 09:24:05 AM 36.9950 -94.2881 38° Northeast 475 547 41,000  Level Kansas Center
Wed 09:25:06 AM 37.1006 -94.1858 38° Northeast 478 550 41,000  Level Kansas Center
Wed 09:26:06 AM 37.1989 -94.0881 38° Northeast 476 548 41,000  Level Kansas Center
Wed 09:27:09 AM 37.3244 -93.9639 38° Northeast 476 548 41,000  Level Kansas Center
Wed 09:28:10 AM 37.4283 -93.8617 38° Northeast 473 544 41,000  Level Kansas Center
Wed 09:29:11 AM 37.5319 -93.7578 38° Northeast 473 544 41,000  Level Kansas Center
Wed 09:30:11 AM 37.6364 -93.6522 39° Northeast 476 548 41,000  Level Kansas Center
Wed 09:31:12 AM 37.7389 -93.5486 39° Northeast 472 543 41,000  Level Kansas Center
Wed 09:32:16 AM 37.8419 -93.4428 39° Northeast 473 544 41,000  Level Kansas Center
Wed 09:33:17 AM 37.9456 -93.3383 38° Northeast 473 544 41,000  Level Kansas Center
Wed 09:34:17 AM 38.0597 -93.2625 28° Northeast 467 537 41,000  Level Kansas Center
Wed 09:35:20 AM 38.1806 -93.2011 22° Northeast 466 536 41,000  Level Kansas Center
Wed 09:36:21 AM 38.3022 -93.1375 22° Northeast 466 536 41,000  Level Kansas Center
Wed 09:37:21 AM 38.4200 -93.0625 27° Northeast 477 549 41,000  Level Kansas Center
Wed 09:38:24 AM 38.5314 -92.9731 32° Northeast 470 541 41,000  Level Kansas Center
Wed 09:39:25 AM 38.6431 -92.8844 32° Northeast 468 539 41,000  Level Kansas Center
Wed 09:40:26 AM 38.7742 -92.7800 32° Northeast 462 532 41,000  Level Kansas Center
Wed 09:41:27 AM 38.8619 -92.6636 46° Northeast 447 514 41,000  Level Kansas Center
Wed 09:42:28 AM 38.9425 -92.5339 51° Northeast 455 524 41,000  Level Kansas Center
Wed 09:43:32 AM 39.0228 -92.4053 51° Northeast 456 525 41,000  Level Kansas Center
Wed 09:44:33 AM 39.1056 -92.2733 51° Northeast 462 532 41,000  Level Kansas Center
Wed 09:45:34 AM 39.1900 -92.1386 51° Northeast 474 545 41,000  Level Kansas Center
Wed 09:46:35 AM 39.2703 -92.0061 52° Northeast 484 557 41,000  Level Kansas Center
Wed 09:47:38 AM 39.3578 -91.8658 51° Northeast 500 575 41,000 -443 Level Kansas Center
Wed 09:48:37 AM 39.4603 -91.6975 52° Northeast 502 578 40,100 -893 Descending Kansas Center
Wed 09:49:39 AM 39.5128 -91.5386 67° East 496 571 39,200 -524 Descending Kansas Center
Wed 09:50:43 AM 39.5442 -91.3681 77° East 491 565 39,000 -97 Descending Kansas Center
Wed 09:51:43 AM 39.5764 -91.1922 77° East 491 565 39,000 -298 Level Kansas Center
Wed 09:52:44 AM 39.6072 -91.0211 77° East 490 564 38,400 -1,016 Descending Kansas Center
Wed 09:53:47 AM 39.6361 -90.8517 77° East 484 557 36,900 -1,632 Descending Kansas Center
Wed 09:54:49 AM 39.6308 -90.6858 92° East 468 539 35,000 -927 Descending Kansas Center
Wed 09:55:50 AM 39.6256 -90.5178 92° East 466 536 35,000 -590 Level Kansas Center
Wed 09:56:51 AM 39.6200 -90.3547 92° East 458 527 33,800 -1,770 Descending Kansas Center
Wed 09:57:52 AM 39.6247 -90.1550 88° East 469 540 31,400 -1,344 Descending Kansas Center
Wed 09:58:56 AM 39.6900 -90.0056 60° Northeast 477 549 31,000 -656 Descending Kansas Center
Wed 10:00:00 AM 39.7614 -89.8486 59° Northeast 472 543 30,000 -1,872 Descending Kansas Center
Wed 10:01:01 AM 39.8272 -89.7056 59° Northeast 466 536 27,100 -1,475 Descending Kansas Center
Wed 10:02:02 AM 39.9175 -89.6022 41° Northeast 436 502 27,000 -50 Descending Kansas Center
Wed 10:03:02 AM 40.0094 -89.5153 36° Northeast 413 475 27,000 -336 Level Kansas Center
Wed 10:04:07 AM 40.1031 -89.4264 36° Northeast 415 478 26,300 -843 Descending Kansas Center
Wed 10:05:03 AM 40.1958 -89.3386 36° Northeast 420 483 25,300 -1,026 Descending Chicago Center
Wed 10:06:04 AM 40.2908 -89.2472 36° Northeast 425 489 24,300 -976 Descending Chicago Center
Wed 10:07:06 AM 40.3839 -89.1569 36° Northeast 421 484 23,300 -634 Descending Chicago Center
Wed 10:08:07 AM 40.5006 -89.0433 37° Northeast 436 502 23,000 -439 Descending Chicago Center
Wed 10:09:09 AM 40.6011 -88.9458 36° Northeast 450 518 22,400 -1,463 Descending Chicago Center
Wed 10:10:10 AM 40.6992 -88.8503 36° Northeast 441 507 20,000 -2,244 Descending Chicago Center
Wed 10:11:12 AM 40.7917 -88.7606 36° Northeast 435 501 17,800 -2,032 Descending Chicago Center
Wed 10:12:14 AM 40.9158 -88.6772 27° Northeast 421 484 15,800 -2,098 Descending Chicago Center
Wed 10:13:15 AM 41.0206 -88.6194 23° Northeast 410 472 13,500 -2,439 Descending Chicago Center
Wed 10:14:17 AM 41.1203 -88.5583 25° Northeast 397 457 10,800 -1,951 Descending Chicago Center
Wed 10:15:18 AM 41.1558 -88.4369 69° East 353 406 9,500 -1,024 Descending Chicago Center
Wed 10:16:20 AM 41.2250 -88.3881 28° Northeast 294 338 8,700 -1,210 Descending Chicago Center
Wed 10:17:22 AM 41.2975 -88.3728 North 266 306 7,000 -1,220 Descending Chicago Center
Wed 10:18:23 AM 41.3469 -88.2967 49° Northeast 269 310 6,200 -488 Descending Chicago Center
Wed 10:19:25 AM 41.4011 -88.2311 42° Northeast 263 303 6,000 -290 Descending Chicago Center
Wed 10:20:27 AM 41.4558 -88.1675 41° Northeast 259 298 5,600 -683 Descending Chicago Center
Wed 10:21:28 AM 41.5178 -88.0886 44° Northeast 253 291 4,600 -927 Descending Chicago Center
Wed 10:22:30 AM 41.5669 -88.0272 43° Northeast 246 283 3,700 -878 Descending Chicago Center
Wed 10:23:31 AM 41.6150 -87.9678 43° Northeast 240 276 2,800 -585 Descending Chicago Center
Wed 10:24:33 AM 41.6606 -87.9094 44° Northeast 234 269 2,500 -145 Descending Chicago Center
Wed 10:25:35 AM 41.6983 -87.8617 43° Northeast 206 237 2,500 -74 Level Chicago Center
Wed 10:25:54 AM 41.7167 -87.8333 49° Northeast 178 205 2,400 -659 Descending Chicago TRACON
Wed 10:27:06 AM 41.7500 -87.8000 37° Northeast 128 147 1,500 -700 Descending Chicago TRACON
Wed 10:27:54 AM 41.7667 -87.7667 56° Northeast 123 142 1,000 -625 Descending Chicago TRACON

Login

Don't have an account? Register now (free) for customized features, flight alerts, and more!